sensor_id;sensor_type;location;lat;lon;timestamp;pressure;altitude;pressure_sealevel;temperature;humidity
86083;BME280;76693;50.220;14.298;2024-03-23T00:55:12;98594.22;;;11.42;70.68
86083;BME280;76693;50.220;14.298;2024-03-23T00:57:38;98588.34;;;11.51;70.33
86083;BME280;76693;50.220;14.298;2024-03-23T01:00:04;98592.53;;;11.44;70.85
86083;BME280;76693;50.220;14.298;2024-03-23T01:02:32;98592.63;;;11.50;70.52
86083;BME280;76693;50.220;14.298;2024-03-23T01:04:57;98580.47;;;11.43;71.03
86083;BME280;76693;50.220;14.298;2024-03-23T01:07:23;98583.19;;;11.52;71.07
86083;BME280;76693;50.220;14.298;2024-03-23T01:09:52;98573.56;;;11.42;71.97
86083;BME280;76693;50.220;14.298;2024-03-23T01:12:18;98574.22;;;11.30;73.17
86083;BME280;76693;50.220;14.298;2024-03-23T01:14:44;98569.69;;;11.18;73.96
86083;BME280;76693;50.220;14.298;2024-03-23T01:17:09;98576.59;;;11.19;73.31
86083;BME280;76693;50.220;14.298;2024-03-23T01:19:34;98564.75;;;11.31;71.21
86083;BME280;76693;50.220;14.298;2024-03-23T01:22:00;98564.63;;;11.24;72.18
86083;BME280;76693;50.220;14.298;2024-03-23T01:24:25;98574.06;;;11.22;72.23
86083;BME280;76693;50.220;14.298;2024-03-23T01:26:50;98559.69;;;11.37;70.97
86083;BME280;76693;50.220;14.298;2024-03-23T01:29:15;98555.19;;;11.25;71.47
86083;BME280;76693;50.220;14.298;2024-03-23T01:31:41;98547.31;;;11.17;71.12
86083;BME280;76693;50.220;14.298;2024-03-23T01:34:06;98541.75;;;10.96;72.53
86083;BME280;76693;50.220;14.298;2024-03-23T01:36:32;98544.66;;;10.67;74.14
86083;BME280;76693;50.220;14.298;2024-03-23T01:38:58;98546.13;;;10.56;74.62
86083;BME280;76693;50.220;14.298;2024-03-23T01:41:24;98542.50;;;10.46;74.52
86083;BME280;76693;50.220;14.298;2024-03-23T01:43:50;98539.91;;;10.45;74.58
86083;BME280;76693;50.220;14.298;2024-03-23T01:46:15;98536.78;;;10.20;75.00
86083;BME280;76693;50.220;14.298;2024-03-23T01:48:41;98539.19;;;10.52;74.06
86083;BME280;76693;50.220;14.298;2024-03-23T01:51:07;98531.97;;;10.36;75.04
86083;BME280;76693;50.220;14.298;2024-03-23T01:53:33;98521.72;;;9.99;75.94
86083;BME280;76693;50.220;14.298;2024-03-23T01:55:58;98521.25;;;10.19;75.19
86083;BME280;76693;50.220;14.298;2024-03-23T01:58:23;98519.13;;;10.37;74.58
86083;BME280;76693;50.220;14.298;2024-03-23T02:00:49;98513.28;;;10.46;73.97
86083;BME280;76693;50.220;14.298;2024-03-23T02:03:24;98517.06;;;10.63;73.86
86083;BME280;76693;50.220;14.298;2024-03-23T02:05:50;98510.13;;;10.61;74.30
86083;BME280;76693;50.220;14.298;2024-03-23T02:08:21;98507.50;;;10.58;73.65
86083;BME280;76693;50.220;14.298;2024-03-23T02:10:50;98499.88;;;10.65;73.36
86083;BME280;76693;50.220;14.298;2024-03-23T02:13:16;98497.13;;;10.55;74.11
86083;BME280;76693;50.220;14.298;2024-03-23T02:15:41;98491.84;;;10.48;74.21
86083;BME280;76693;50.220;14.298;2024-03-23T02:18:07;98489.94;;;10.38;74.82
86083;BME280;76693;50.220;14.298;2024-03-23T02:20:33;98482.22;;;10.40;74.29
86083;BME280;76693;50.220;14.298;2024-03-23T02:22:59;98476.78;;;10.24;75.28
86083;BME280;76693;50.220;14.298;2024-03-23T02:25:24;98472.81;;;10.43;74.19
86083;BME280;76693;50.220;14.298;2024-03-23T02:27:49;98471.69;;;10.29;75.47
86083;BME280;76693;50.220;14.298;2024-03-23T02:30:15;98464.63;;;10.20;75.13
86083;BME280;76693;50.220;14.298;2024-03-23T02:32:40;98454.44;;;10.27;75.58
86083;BME280;76693;50.220;14.298;2024-03-23T02:35:06;98454.63;;;10.36;74.38
86083;BME280;76693;50.220;14.298;2024-03-23T02:37:31;98451.59;;;10.14;75.55
86083;BME280;76693;50.220;14.298;2024-03-23T02:39:58;98459.31;;;10.14;74.97
86083;BME280;76693;50.220;14.298;2024-03-23T02:42:24;98446.25;;;10.05;76.61
86083;BME280;76693;50.220;14.298;2024-03-23T02:44:49;98442.06;;;10.10;75.80
86083;BME280;76693;50.220;14.298;2024-03-23T02:47:14;98452.50;;;10.16;75.54
86083;BME280;76693;50.220;14.298;2024-03-23T02:49:40;98443.50;;;9.96;75.89
86083;BME280;76693;50.220;14.298;2024-03-23T02:52:05;98447.22;;;10.10;75.30
86083;BME280;76693;50.220;14.298;2024-03-23T02:54:30;98439.09;;;9.90;76.15
86083;BME280;76693;50.220;14.298;2024-03-23T02:56:56;98443.34;;;9.90;76.86
86083;BME280;76693;50.220;14.298;2024-03-23T02:59:21;98441.31;;;9.73;77.06
86083;BME280;76693;50.220;14.298;2024-03-23T03:01:46;98436.09;;;9.70;76.81
86083;BME280;76693;50.220;14.298;2024-03-23T03:04:12;98428.94;;;9.57;77.01
86083;BME280;76693;50.220;14.298;2024-03-23T03:06:37;98420.56;;;9.67;76.74
86083;BME280;76693;50.220;14.298;2024-03-23T03:09:03;98414.25;;;9.53;77.01
86083;BME280;76693;50.220;14.298;2024-03-23T03:11:29;98415.06;;;9.52;77.50
86083;BME280;76693;50.220;14.298;2024-03-23T03:13:55;98414.88;;;9.43;77.52
86083;BME280;76693;50.220;14.298;2024-03-23T03:16:20;98414.88;;;9.43;77.41
86083;BME280;76693;50.220;14.298;2024-03-23T03:18:45;98424.19;;;9.38;77.45
86083;BME280;76693;50.220;14.298;2024-03-23T03:21:12;98407.09;;;9.40;76.86
86083;BME280;76693;50.220;14.298;2024-03-23T03:23:38;98402.63;;;9.33;77.19
86083;BME280;76693;50.220;14.298;2024-03-23T03:26:04;98392.63;;;9.07;77.94
86083;BME280;76693;50.220;14.298;2024-03-23T03:28:31;98376.88;;;8.93;78.82
86083;BME280;76693;50.220;14.298;2024-03-23T03:30:57;98374.44;;;8.65;79.77
86083;BME280;76693;50.220;14.298;2024-03-23T03:33:23;98371.16;;;8.70;80.05
86083;BME280;76693;50.220;14.298;2024-03-23T03:35:48;98366.72;;;9.01;78.65
86083;BME280;76693;50.220;14.298;2024-03-23T03:38:14;98365.56;;;8.87;79.35
86083;BME280;76693;50.220;14.298;2024-03-23T03:40:41;98365.63;;;8.90;78.76
86083;BME280;76693;50.220;14.298;2024-03-23T03:43:06;98359.72;;;8.94;78.26
86083;BME280;76693;50.220;14.298;2024-03-23T03:45:32;98359.38;;;8.80;78.56
86083;BME280;76693;50.220;14.298;2024-03-23T03:47:57;98356.75;;;8.77;78.71
86083;BME280;76693;50.220;14.298;2024-03-23T03:50:22;98348.00;;;8.69;79.14
86083;BME280;76693;50.220;14.298;2024-03-23T03:52:48;98349.69;;;8.68;79.14
86083;BME280;76693;50.220;14.298;2024-03-23T03:55:14;98340.19;;;8.66;78.85
86083;BME280;76693;50.220;14.298;2024-03-23T03:57:40;98335.78;;;8.60;79.43
86083;BME280;76693;50.220;14.298;2024-03-23T04:00:06;98335.25;;;8.75;78.71
86083;BME280;76693;50.220;14.298;2024-03-23T04:02:31;98339.75;;;8.84;78.77
86083;BME280;76693;50.220;14.298;2024-03-23T04:04:56;98339.84;;;8.87;78.47
86083;BME280;76693;50.220;14.298;2024-03-23T04:07:22;98334.91;;;8.96;78.51
86083;BME280;76693;50.220;14.298;2024-03-23T04:09:48;98335.25;;;8.75;79.40
86083;BME280;76693;50.220;14.298;2024-03-23T04:12:14;98343.84;;;8.75;78.75
86083;BME280;76693;50.220;14.298;2024-03-23T04:14:40;98330.88;;;8.71;78.94
86083;BME280;76693;50.220;14.298;2024-03-23T04:17:06;98330.78;;;8.68;79.06
86083;BME280;76693;50.220;14.298;2024-03-23T04:19:31;98336.41;;;8.88;78.14
86083;BME280;76693;50.220;14.298;2024-03-23T04:21:56;98327.53;;;9.11;77.33
86083;BME280;76693;50.220;14.298;2024-03-23T04:24:22;98320.63;;;9.09;77.03
86083;BME280;76693;50.220;14.298;2024-03-23T04:26:47;98319.75;;;9.08;77.27
86083;BME280;76693;50.220;14.298;2024-03-23T04:29:13;98313.19;;;9.22;77.04
86083;BME280;76693;50.220;14.298;2024-03-23T04:31:38;98318.50;;;9.29;76.71
86083;BME280;76693;50.220;14.298;2024-03-23T04:34:04;98329.03;;;8.65;78.76
86083;BME280;76693;50.220;14.298;2024-03-23T04:36:29;98331.34;;;8.55;79.30
86083;BME280;76693;50.220;14.298;2024-03-23T04:38:56;98328.88;;;8.59;79.00
86083;BME280;76693;50.220;14.298;2024-03-23T04:41:21;98327.66;;;8.80;78.53
86083;BME280;76693;50.220;14.298;2024-03-23T04:43:47;98319.53;;;8.99;78.38
86083;BME280;76693;50.220;14.298;2024-03-23T04:46:12;98313.75;;;9.08;78.51
86083;BME280;76693;50.220;14.298;2024-03-23T04:48:37;98310.56;;;9.19;77.47
86083;BME280;76693;50.220;14.298;2024-03-23T04:51:03;98308.00;;;9.19;77.27
86083;BME280;76693;50.220;14.298;2024-03-23T04:53:29;98306.50;;;9.31;77.27
86083;BME280;76693;50.220;14.298;2024-03-23T04:55:55;98298.75;;;9.28;77.11
86083;BME280;76693;50.220;14.298;2024-03-23T04:58:22;98294.41;;;9.27;76.90
86083;BME280;76693;50.220;14.298;2024-03-23T05:00:53;98290.19;;;9.30;76.94
86083;BME280;76693;50.220;14.298;2024-03-23T05:03:18;98291.13;;;9.34;76.59
86083;BME280;76693;50.220;14.298;2024-03-23T05:05:44;98292.16;;;9.42;76.82
86083;BME280;76693;50.220;14.298;2024-03-23T05:08:09;98287.88;;;9.41;76.90
86083;BME280;76693;50.220;14.298;2024-03-23T05:10:35;98271.41;;;9.34;76.94
86083;BME280;76693;50.220;14.298;2024-03-23T05:13:00;98273.16;;;9.35;77.04
86083;BME280;76693;50.220;14.298;2024-03-23T05:15:26;98270.03;;;9.50;77.21
86083;BME280;76693;50.220;14.298;2024-03-23T05:17:52;98265.75;;;9.52;77.04
86083;BME280;76693;50.220;14.298;2024-03-23T05:20:18;98264.94;;;9.53;77.22
86083;BME280;76693;50.220;14.298;2024-03-23T05:22:44;98266.00;;;9.64;77.38
86083;BME280;76693;50.220;14.298;2024-03-23T05:25:09;98254.47;;;9.44;78.12
86083;BME280;76693;50.220;14.298;2024-03-23T05:27:35;98256.91;;;9.38;77.87
86083;BME280;76693;50.220;14.298;2024-03-23T05:30:00;98252.13;;;9.56;77.38
86083;BME280;76693;50.220;14.298;2024-03-23T05:32:26;98241.81;;;9.56;77.60
86083;BME280;76693;50.220;14.298;2024-03-23T05:34:51;98251.38;;;9.62;77.44
86083;BME280;76693;50.220;14.298;2024-03-23T05:37:21;98244.06;;;9.39;77.99
86083;BME280;76693;50.220;14.298;2024-03-23T05:39:47;98244.63;;;9.24;78.29
86083;BME280;76693;50.220;14.298;2024-03-23T05:42:14;98248.91;;;9.68;77.23
86083;BME280;76693;50.220;14.298;2024-03-23T05:44:40;98232.59;;;9.67;76.97
86083;BME280;76693;50.220;14.298;2024-03-23T05:47:05;98231.09;;;9.79;76.04
86083;BME280;76693;50.220;14.298;2024-03-23T05:49:31;98223.38;;;9.79;76.65
86083;BME280;76693;50.220;14.298;2024-03-23T05:51:56;98219.88;;;9.73;77.91
86083;BME280;76693;50.220;14.298;2024-03-23T05:54:21;98223.31;;;9.75;77.04
86083;BME280;76693;50.220;14.298;2024-03-23T05:56:47;98214.59;;;9.69;76.97
86083;BME280;76693;50.220;14.298;2024-03-23T05:59:12;98224.56;;;9.52;78.43
86083;BME280;76693;50.220;14.298;2024-03-23T06:01:37;98203.19;;;9.55;78.53
86083;BME280;76693;50.220;14.298;2024-03-23T06:04:04;98186.78;;;9.98;76.58
86083;BME280;76693;50.220;14.298;2024-03-23T06:06:29;98183.00;;;10.28;75.62
86083;BME280;76693;50.220;14.298;2024-03-23T06:08:57;98188.31;;;10.38;75.07
86083;BME280;76693;50.220;14.298;2024-03-23T06:11:23;98189.94;;;10.32;75.08
86083;BME280;76693;50.220;14.298;2024-03-23T06:13:52;98184.03;;;10.37;74.79
86083;BME280;76693;50.220;14.298;2024-03-23T06:16:18;98161.19;;;10.63;73.46
86083;BME280;76693;50.220;14.298;2024-03-23T06:18:48;98161.25;;;10.66;72.91
86083;BME280;76693;50.220;14.298;2024-03-23T06:21:13;98151.03;;;10.76;72.59
86083;BME280;76693;50.220;14.298;2024-03-23T06:23:40;98154.59;;;10.87;71.96
86083;BME280;76693;50.220;14.298;2024-03-23T06:26:06;98144.44;;;10.96;72.87
86083;BME280;76693;50.220;14.298;2024-03-23T06:28:31;98144.44;;;10.96;72.41
86083;BME280;76693;50.220;14.298;2024-03-23T06:30:56;98144.38;;;10.93;71.89
86083;BME280;76693;50.220;14.298;2024-03-23T06:33:22;98147.16;;;11.10;70.72
86083;BME280;76693;50.220;14.298;2024-03-23T06:35:51;98155.66;;;11.03;71.91
86083;BME280;76693;50.220;14.298;2024-03-23T06:38:17;98132.53;;;11.10;73.31
86083;BME280;76693;50.220;14.298;2024-03-23T06:40:42;98132.59;;;11.13;72.41
86083;BME280;76693;50.220;14.298;2024-03-23T06:43:13;98124.00;;;11.14;72.02
86083;BME280;76693;50.220;14.298;2024-03-23T06:45:38;98121.34;;;11.08;72.45
86083;BME280;76693;50.220;14.298;2024-03-23T06:48:04;98120.69;;;11.28;72.86
86083;BME280;76693;50.220;14.298;2024-03-23T06:50:29;98118.22;;;11.40;72.49
86083;BME280;76693;50.220;14.298;2024-03-23T06:52:54;98114.38;;;11.88;72.16
86083;BME280;76693;50.220;14.298;2024-03-23T06:55:20;98109.38;;;12.09;69.51
86083;BME280;76693;50.220;14.298;2024-03-23T06:57:45;98096.50;;;12.15;69.18
86083;BME280;76693;50.220;14.298;2024-03-23T07:00:11;98102.75;;;12.51;69.05
86083;BME280;76693;50.220;14.298;2024-03-23T07:02:38;98094.22;;;12.70;68.21
86083;BME280;76693;50.220;14.298;2024-03-23T07:05:04;98089.16;;;12.98;68.32
86083;BME280;76693;50.220;14.298;2024-03-23T07:07:29;98083.28;;;13.59;66.20
86083;BME280;76693;50.220;14.298;2024-03-23T07:09:55;98078.97;;;13.96;64.59
86083;BME280;76693;50.220;14.298;2024-03-23T07:12:20;98079.75;;;14.32;63.43
86083;BME280;76693;50.220;14.298;2024-03-23T07:14:46;98080.59;;;14.52;62.77
86083;BME280;76693;50.220;14.298;2024-03-23T07:17:11;98073.66;;;14.57;63.49
86083;BME280;76693;50.220;14.298;2024-03-23T07:19:37;98065.06;;;14.31;60.99
86083;BME280;76693;50.220;14.298;2024-03-23T07:22:02;98065.03;;;14.58;60.67
86083;BME280;76693;50.220;14.298;2024-03-23T07:24:27;98054.53;;;14.84;61.78
86083;BME280;76693;50.220;14.298;2024-03-23T07:26:52;98044.31;;;14.34;63.00
86083;BME280;76693;50.220;14.298;2024-03-23T07:29:19;98031.38;;;14.17;60.93
86083;BME280;76693;50.220;14.298;2024-03-23T07:31:45;98024.53;;;13.82;61.91
86083;BME280;76693;50.220;14.298;2024-03-23T07:34:11;98023.66;;;13.72;62.17
86083;BME280;76693;50.220;14.298;2024-03-23T07:36:37;98016.69;;;14.11;60.42
86083;BME280;76693;50.220;14.298;2024-03-23T07:39:04;98011.44;;;14.36;59.93
86083;BME280;76693;50.220;14.298;2024-03-23T07:41:29;98005.31;;;14.60;58.90
86083;BME280;76693;50.220;14.298;2024-03-23T07:43:55;98001.78;;;14.75;58.15
86083;BME280;76693;50.220;14.298;2024-03-23T07:46:21;98000.03;;;14.84;57.50
86083;BME280;76693;50.220;14.298;2024-03-23T07:48:46;98002.41;;;15.18;57.73
86083;BME280;76693;50.220;14.298;2024-03-23T07:51:21;97990.22;;;15.28;57.07
86083;BME280;76693;50.220;14.298;2024-03-23T07:53:46;97995.28;;;15.43;55.76
86083;BME280;76693;50.220;14.298;2024-03-23T07:56:14;97990.00;;;15.55;56.70
86083;BME280;76693;50.220;14.298;2024-03-23T07:58:44;97991.88;;;15.33;54.85
86083;BME280;76693;50.220;14.298;2024-03-23T08:01:11;97985.09;;;15.15;54.39
86083;BME280;76693;50.220;14.298;2024-03-23T08:03:39;97994.50;;;15.35;55.15
86083;BME280;76693;50.220;14.298;2024-03-23T08:06:08;97983.16;;;15.42;54.72
86083;BME280;76693;50.220;14.298;2024-03-23T08:08:33;97982.28;;;15.41;54.61
86083;BME280;76693;50.220;14.298;2024-03-23T08:10:59;97970.34;;;15.20;54.79
86083;BME280;76693;50.220;14.298;2024-03-23T08:13:24;97971.03;;;15.44;55.11
86083;BME280;76693;50.220;14.298;2024-03-23T08:15:49;97971.75;;;15.61;54.87
86083;BME280;76693;50.220;14.298;2024-03-23T08:18:15;97956.09;;;15.70;54.23
86083;BME280;76693;50.220;14.298;2024-03-23T08:20:43;97966.25;;;15.92;53.56
86083;BME280;76693;50.220;14.298;2024-03-23T08:23:08;97981.03;;;15.90;53.10
86083;BME280;76693;50.220;14.298;2024-03-23T08:25:34;97974.41;;;16.40;52.87
86083;BME280;76693;50.220;14.298;2024-03-23T08:28:00;97962.06;;;16.54;52.22
86083;BME280;76693;50.220;14.298;2024-03-23T08:30:26;97947.75;;;16.87;52.28
86083;BME280;76693;50.220;14.298;2024-03-23T08:32:51;97952.16;;;16.84;51.62
86083;BME280;76693;50.220;14.298;2024-03-23T08:35:17;97963.66;;;15.92;51.49
86083;BME280;76693;50.220;14.298;2024-03-23T08:37:42;97944.16;;;16.31;51.18
86083;BME280;76693;50.220;14.298;2024-03-23T08:40:08;97955.69;;;16.10;50.79
86083;BME280;76693;50.220;14.298;2024-03-23T08:42:34;97948.69;;;16.12;50.69
86083;BME280;76693;50.220;14.298;2024-03-23T08:44:59;97944.16;;;16.30;50.81
86083;BME280;76693;50.220;14.298;2024-03-23T08:47:25;97956.53;;;16.09;50.56
86083;BME280;76693;50.220;14.298;2024-03-23T08:49:50;97968.38;;;16.35;49.55
86083;BME280;76693;50.220;14.298;2024-03-23T08:52:16;97951.31;;;16.12;50.37
86083;BME280;76693;50.220;14.298;2024-03-23T08:54:41;97959.81;;;16.27;50.74
86083;BME280;76693;50.220;14.298;2024-03-23T08:57:06;97958.19;;;16.16;50.61
86083;BME280;76693;50.220;14.298;2024-03-23T08:59:32;97974.13;;;15.86;51.54
86083;BME280;76693;50.220;14.298;2024-03-23T09:01:58;97971.69;;;15.69;51.50
86083;BME280;76693;50.220;14.298;2024-03-23T09:04:23;97969.97;;;15.69;51.99
86083;BME280;76693;50.220;14.298;2024-03-23T09:06:48;98003.09;;;15.43;52.18
86083;BME280;76693;50.220;14.298;2024-03-23T09:09:14;97964.13;;;15.40;52.55
86083;BME280;76693;50.220;14.298;2024-03-23T09:11:39;97972.06;;;15.23;52.81
86083;BME280;76693;50.220;14.298;2024-03-23T09:14:04;97979.16;;;14.95;53.53
86083;BME280;76693;50.220;14.298;2024-03-23T09:16:30;97978.47;;;14.65;54.13
86083;BME280;76693;50.220;14.298;2024-03-23T09:18:55;97968.16;;;14.47;55.02
86083;BME280;76693;50.220;14.298;2024-03-23T09:21:21;97981.94;;;14.61;55.06
86083;BME280;76693;50.220;14.298;2024-03-23T09:23:46;97988.06;;;14.43;55.73
86083;BME280;76693;50.220;14.298;2024-03-23T09:26:12;97982.03;;;14.32;56.02
86083;BME280;76693;50.220;14.298;2024-03-23T09:28:37;97992.47;;;14.26;56.92
86083;BME280;76693;50.220;14.298;2024-03-23T09:31:07;98002.06;;;13.87;61.33
86083;BME280;76693;50.220;14.298;2024-03-23T09:33:34;97997.78;;;13.63;63.88
86083;BME280;76693;50.220;14.298;2024-03-23T09:36:03;98001.22;;;13.22;64.97
86083;BME280;76693;50.220;14.298;2024-03-23T09:38:29;98005.50;;;13.07;66.16
86083;BME280;76693;50.220;14.298;2024-03-23T09:40:54;98015.03;;;13.34;67.07
86083;BME280;76693;50.220;14.298;2024-03-23T09:43:19;97994.31;;;13.29;65.64
86083;BME280;76693;50.220;14.298;2024-03-23T09:45:46;97981.34;;;13.15;65.81
86083;BME280;76693;50.220;14.298;2024-03-23T09:48:11;97989.06;;;13.00;66.97
86083;BME280;76693;50.220;14.298;2024-03-23T09:50:40;98006.38;;;13.15;66.10
86083;BME280;76693;50.220;14.298;2024-03-23T09:53:07;97996.91;;;13.67;64.46
86083;BME280;76693;50.220;14.298;2024-03-23T09:55:33;97993.44;;;13.68;63.59
86083;BME280;76693;50.220;14.298;2024-03-23T09:57:59;97998.63;;;13.79;62.59
86083;BME280;76693;50.220;14.298;2024-03-23T10:00:24;98017.66;;;13.49;61.09
86083;BME280;76693;50.220;14.298;2024-03-23T10:02:50;98018.50;;;13.45;60.96
86083;BME280;76693;50.220;14.298;2024-03-23T10:05:23;98033.19;;;13.44;59.93
86083;BME280;76693;50.220;14.298;2024-03-23T10:07:49;98036.66;;;13.74;59.17
86083;BME280;76693;50.220;14.298;2024-03-23T10:10:15;98033.19;;;13.75;60.20
86083;BME280;76693;50.220;14.298;2024-03-23T10:12:46;98041.78;;;13.34;60.36
86083;BME280;76693;50.220;14.298;2024-03-23T10:15:18;98040.06;;;13.35;60.54
86083;BME280;76693;50.220;14.298;2024-03-23T10:17:44;98046.13;;;13.34;61.46
86083;BME280;76693;50.220;14.298;2024-03-23T10:20:10;98044.34;;;13.17;60.29
86083;BME280;76693;50.220;14.298;2024-03-23T10:22:39;98053.03;;;13.47;60.42
86083;BME280;76693;50.220;14.298;2024-03-23T10:25:09;98055.56;;;13.16;62.48
86083;BME280;76693;50.220;14.298;2024-03-23T10:27:36;98072.03;;;13.32;61.82
86083;BME280;76693;50.220;14.298;2024-03-23T10:30:11;98064.25;;;13.32;61.85
86083;BME280;76693;50.220;14.298;2024-03-23T10:32:37;98065.13;;;13.42;62.45
86083;BME280;76693;50.220;14.298;2024-03-23T10:35:16;98067.69;;;13.23;63.13
86083;BME280;76693;50.220;14.298;2024-03-23T10:37:44;98080.69;;;13.72;62.37
86083;BME280;76693;50.220;14.298;2024-03-23T10:40:12;98085.88;;;13.69;61.69
86083;BME280;76693;50.220;14.298;2024-03-23T10:42:38;98068.56;;;13.44;62.28
86083;BME280;76693;50.220;14.298;2024-03-23T10:45:05;98078.94;;;13.64;61.78
86083;BME280;76693;50.220;14.298;2024-03-23T10:47:35;98089.28;;;14.27;60.93
86083;BME280;76693;50.220;14.298;2024-03-23T10:50:01;98088.47;;;13.69;60.12
86083;BME280;76693;50.220;14.298;2024-03-23T10:52:27;98084.94;;;14.45;59.00
86083;BME280;76693;50.220;14.298;2024-03-23T10:54:52;98078.94;;;14.08;58.78
86083;BME280;76693;50.220;14.298;2024-03-23T10:57:21;98091.00;;;14.34;58.17
86083;BME280;76693;50.220;14.298;2024-03-23T10:59:49;98072.81;;;14.52;58.70
86083;BME280;76693;50.220;14.298;2024-03-23T11:02:21;98063.13;;;14.91;56.78
86083;BME280;76693;50.220;14.298;2024-03-23T11:04:47;98066.75;;;14.47;57.45
86083;BME280;76693;50.220;14.298;2024-03-23T11:07:30;98073.41;;;15.12;56.06
86083;BME280;76693;50.220;14.298;2024-03-23T11:09:57;98078.88;;;14.54;57.73
86083;BME280;76693;50.220;14.298;2024-03-23T11:14:52;98063.38;;;14.05;58.92
86083;BME280;76693;50.220;14.298;2024-03-23T11:17:22;98060.78;;;13.97;58.64
86083;BME280;76693;50.220;14.298;2024-03-23T11:22:44;98164.34;;;10.44;74.91
86083;BME280;76693;50.220;14.298;2024-03-23T11:27:40;98164.28;;;9.86;85.84
86083;BME280;76693;50.220;14.298;2024-03-23T11:30:19;98183.19;;;9.88;80.27
86083;BME280;76693;50.220;14.298;2024-03-23T11:32:45;98191.53;;;10.83;76.80
86083;BME280;76693;50.220;14.298;2024-03-23T11:35:31;98197.84;;;10.44;74.12
86083;BME280;76693;50.220;14.298;2024-03-23T11:38:11;98201.09;;;10.32;73.17
86083;BME280;76693;50.220;14.298;2024-03-23T11:40:47;98246.03;;;10.46;73.15
86083;BME280;76693;50.220;14.298;2024-03-23T11:43:14;98243.34;;;9.90;68.25
86083;BME280;76693;50.220;14.298;2024-03-23T11:45:51;98274.41;;;10.48;65.32
86083;BME280;76693;50.220;14.298;2024-03-23T11:48:21;98237.63;;;10.58;63.07
86083;BME280;76693;50.220;14.298;2024-03-23T11:50:49;98245.63;;;10.77;61.97
86083;BME280;76693;50.220;14.298;2024-03-23T11:53:20;98235.34;;;10.80;61.78
86083;BME280;76693;50.220;14.298;2024-03-23T11:55:53;98251.59;;;10.22;62.29
86083;BME280;76693;50.220;14.298;2024-03-23T11:58:19;98260.75;;;9.58;64.83
86083;BME280;76693;50.220;14.298;2024-03-23T12:00:57;98255.72;;;10.11;62.88
86083;BME280;76693;50.220;14.298;2024-03-23T12:03:23;98275.53;;;10.15;60.93
86083;BME280;76693;50.220;14.298;2024-03-23T12:05:52;98285.25;;;10.82;59.34
86083;BME280;76693;50.220;14.298;2024-03-23T12:08:28;98288.19;;;10.50;58.16
86083;BME280;76693;50.220;14.298;2024-03-23T12:13:40;98319.22;;;10.56;57.04
86083;BME280;76693;50.220;14.298;2024-03-23T12:16:27;98298.53;;;10.53;55.18
86083;BME280;76693;50.220;14.298;2024-03-23T12:18:53;98304.72;;;10.63;54.57
86083;BME280;76693;50.220;14.298;2024-03-23T12:21:29;98281.41;;;10.55;54.99
86083;BME280;76693;50.220;14.298;2024-03-23T12:23:55;98283.75;;;10.96;54.65
86083;BME280;76693;50.220;14.298;2024-03-23T12:26:20;98287.25;;;11.01;54.84
86083;BME280;76693;50.220;14.298;2024-03-23T12:28:46;98311.34;;;11.03;54.35
86083;BME280;76693;50.220;14.298;2024-03-23T12:31:11;98293.91;;;10.87;54.63
86083;BME280;76693;50.220;14.298;2024-03-23T12:33:36;98307.44;;;10.70;54.29
86083;BME280;76693;50.220;14.298;2024-03-23T12:36:02;98311.09;;;10.85;54.92
86083;BME280;76693;50.220;14.298;2024-03-23T12:38:28;98324.31;;;11.08;54.01
86083;BME280;76693;50.220;14.298;2024-03-23T12:40:53;98304.59;;;10.55;54.68
86083;BME280;76693;50.220;14.298;2024-03-23T12:43:18;98304.00;;;10.71;53.50
86083;BME280;76693;50.220;14.298;2024-03-23T12:45:47;98318.28;;;10.51;54.04
86083;BME280;76693;50.220;14.298;2024-03-23T12:48:12;98334.91;;;10.68;53.57
86083;BME280;76693;50.220;14.298;2024-03-23T12:50:38;98365.28;;;10.86;53.25
86083;BME280;76693;50.220;14.298;2024-03-23T12:53:03;98385.63;;;10.69;52.35
86083;BME280;76693;50.220;14.298;2024-03-23T12:57:51;98403.06;;;10.36;51.24
86083;BME280;76693;50.220;14.298;2024-03-23T13:00:16;98408.03;;;10.72;51.47
86083;BME280;76693;50.220;14.298;2024-03-23T13:02:42;98415.06;;;10.81;52.06
86083;BME280;76693;50.220;14.298;2024-03-23T13:05:08;98416.28;;;11.59;50.28
86083;BME280;76693;50.220;14.298;2024-03-23T13:07:36;98420.19;;;12.64;47.69
86083;BME280;76693;50.220;14.298;2024-03-23T13:10:03;98432.28;;;12.70;46.82
86083;BME280;76693;50.220;14.298;2024-03-23T13:12:28;98407.31;;;11.96;48.11
86083;BME280;76693;50.220;14.298;2024-03-23T13:14:54;98420.72;;;11.67;49.93
86083;BME280;76693;50.220;14.298;2024-03-23T13:17:19;98443.97;;;11.67;49.04
86083;BME280;76693;50.220;14.298;2024-03-23T13:19:45;98416.97;;;12.90;46.14
86083;BME280;76693;50.220;14.298;2024-03-23T13:22:10;98462.34;;;11.86;46.65
86083;BME280;76693;50.220;14.298;2024-03-23T13:24:37;98471.66;;;11.79;48.32
86083;BME280;76693;50.220;14.298;2024-03-23T13:27:02;98470.75;;;11.18;49.33
86083;BME280;76693;50.220;14.298;2024-03-23T13:29:27;98482.34;;;10.46;50.75
86083;BME280;76693;50.220;14.298;2024-03-23T13:31:53;98464.22;;;10.90;49.83
86083;BME280;76693;50.220;14.298;2024-03-23T13:34:18;98478.00;;;10.43;50.71
86083;BME280;76693;50.220;14.298;2024-03-23T13:36:44;98450.41;;;10.85;49.88
86083;BME280;76693;50.220;14.298;2024-03-23T13:39:10;98459.25;;;11.54;48.20
86083;BME280;76693;50.220;14.298;2024-03-23T13:41:40;98442.13;;;11.04;49.15
86083;BME280;76693;50.220;14.298;2024-03-23T13:44:06;98456.72;;;14.21;42.06
86083;BME280;76693;50.220;14.298;2024-03-23T13:46:32;98451.50;;;12.14;46.36
86083;BME280;76693;50.220;14.298;2024-03-23T13:48:57;98477.66;;;11.20;48.86
86083;BME280;76693;50.220;14.298;2024-03-23T13:51:23;98497.34;;;12.28;46.87
86083;BME280;76693;50.220;14.298;2024-03-23T13:53:50;98509.63;;;11.29;48.10
86083;BME280;76693;50.220;14.298;2024-03-23T13:56:15;98514.41;;;11.07;49.60